sensor_id;sensor_type;location;lat;lon;timestamp;P1;durP1;ratioP1;P2;durP2;ratioP2
21354;SDS011;10835;50.148;19.760;2023-05-10T00:00:42;6.20;;;2.70;;
21354;SDS011;10835;50.148;19.760;2023-05-10T00:03:10;4.47;;;2.42;;
21354;SDS011;10835;50.148;19.760;2023-05-10T00:05:38;3.78;;;2.55;;
21354;SDS011;10835;50.148;19.760;2023-05-10T00:08:07;4.38;;;2.65;;
21354;SDS011;10835;50.148;19.760;2023-05-10T00:10:36;4.40;;;2.83;;
21354;SDS011;10835;50.148;19.760;2023-05-10T00:13:05;5.40;;;2.70;;
21354;SDS011;10835;50.148;19.760;2023-05-10T00:15:33;6.43;;;2.75;;
21354;SDS011;10835;50.148;19.760;2023-05-10T00:18:04;4.97;;;2.65;;
21354;SDS011;10835;50.148;19.760;2023-05-10T00:20:33;5.07;;;2.63;;
21354;SDS011;10835;50.148;19.760;2023-05-10T00:23:01;5.60;;;3.05;;
21354;SDS011;10835;50.148;19.760;2023-05-10T00:25:29;3.40;;;2.25;;
21354;SDS011;10835;50.148;19.760;2023-05-10T00:27:58;6.15;;;2.40;;
21354;SDS011;10835;50.148;19.760;2023-05-10T00:30:28;5.97;;;2.78;;
21354;SDS011;10835;50.148;19.760;2023-05-10T00:32:56;3.70;;;2.65;;
21354;SDS011;10835;50.148;19.760;2023-05-10T00:35:25;4.68;;;2.53;;
21354;SDS011;10835;50.148;19.760;2023-05-10T00:37:53;4.80;;;2.78;;
21354;SDS011;10835;50.148;19.760;2023-05-10T00:40:21;7.45;;;2.50;;
21354;SDS011;10835;50.148;19.760;2023-05-10T00:42:54;3.50;;;2.50;;
21354;SDS011;10835;50.148;19.760;2023-05-10T00:45:24;3.42;;;2.25;;
21354;SDS011;10835;50.148;19.760;2023-05-10T00:47:53;2.90;;;2.20;;
21354;SDS011;10835;50.148;19.760;2023-05-10T00:50:22;4.95;;;2.50;;
21354;SDS011;10835;50.148;19.760;2023-05-10T00:52:51;2.53;;;2.30;;
21354;SDS011;10835;50.148;19.760;2023-05-10T00:55:19;4.80;;;2.55;;
21354;SDS011;10835;50.148;19.760;2023-05-10T00:57:48;6.88;;;2.78;;
21354;SDS011;10835;50.148;19.760;2023-05-10T01:00:17;3.85;;;2.45;;
21354;SDS011;10835;50.148;19.760;2023-05-10T01:02:47;3.30;;;2.55;;
21354;SDS011;10835;50.148;19.760;2023-05-10T01:05:16;5.22;;;1.98;;
21354;SDS011;10835;50.148;19.760;2023-05-10T01:07:44;3.22;;;2.05;;
21354;SDS011;10835;50.148;19.760;2023-05-10T01:10:13;3.83;;;2.28;;
21354;SDS011;10835;50.148;19.760;2023-05-10T01:12:42;2.97;;;2.33;;
21354;SDS011;10835;50.148;19.760;2023-05-10T01:15:14;3.50;;;2.10;;
21354;SDS011;10835;50.148;19.760;2023-05-10T01:17:44;3.47;;;2.40;;
21354;SDS011;10835;50.148;19.760;2023-05-10T01:20:15;3.45;;;2.33;;
21354;SDS011;10835;50.148;19.760;2023-05-10T01:23:00;2.53;;;1.67;;
21354;SDS011;10835;50.148;19.760;2023-05-10T01:28:50;4.18;;;2.33;;
21354;SDS011;10835;50.148;19.760;2023-05-10T01:31:40;3.92;;;2.03;;
21354;SDS011;10835;50.148;19.760;2023-05-10T01:34:34;3.80;;;1.95;;
21354;SDS011;10835;50.148;19.760;2023-05-10T01:37:06;3.67;;;2.03;;
21354;SDS011;10835;50.148;19.760;2023-05-10T01:39:39;5.35;;;2.58;;
21354;SDS011;10835;50.148;19.760;2023-05-10T01:42:14;2.65;;;2.13;;
21354;SDS011;10835;50.148;19.760;2023-05-10T01:44:46;2.95;;;1.95;;
21354;SDS011;10835;50.148;19.760;2023-05-10T01:47:23;4.43;;;2.35;;
21354;SDS011;10835;50.148;19.760;2023-05-10T01:49:59;4.20;;;2.33;;
21354;SDS011;10835;50.148;19.760;2023-05-10T01:52:31;2.33;;;1.98;;
21354;SDS011;10835;50.148;19.760;2023-05-10T01:55:05;3.67;;;2.00;;
21354;SDS011;10835;50.148;19.760;2023-05-10T01:57:36;4.63;;;2.25;;
21354;SDS011;10835;50.148;19.760;2023-05-10T02:00:08;2.92;;;1.95;;
21354;SDS011;10835;50.148;19.760;2023-05-10T02:02:44;8.27;;;2.38;;
21354;SDS011;10835;50.148;19.760;2023-05-10T02:05:14;3.42;;;2.30;;
21354;SDS011;10835;50.148;19.760;2023-05-10T02:07:43;2.47;;;1.80;;
21354;SDS011;10835;50.148;19.760;2023-05-10T02:10:12;2.20;;;1.58;;
21354;SDS011;10835;50.148;19.760;2023-05-10T02:12:42;3.75;;;2.17;;
21354;SDS011;10835;50.148;19.760;2023-05-10T02:15:15;2.00;;;1.80;;
21354;SDS011;10835;50.148;19.760;2023-05-10T02:17:48;2.75;;;1.83;;
21354;SDS011;10835;50.148;19.760;2023-05-10T02:20:17;3.28;;;1.92;;
21354;SDS011;10835;50.148;19.760;2023-05-10T02:22:48;2.65;;;2.10;;
21354;SDS011;10835;50.148;19.760;2023-05-10T02:25:19;2.92;;;1.85;;
21354;SDS011;10835;50.148;19.760;2023-05-10T02:27:48;3.55;;;2.35;;
21354;SDS011;10835;50.148;19.760;2023-05-10T02:30:19;5.63;;;2.17;;
21354;SDS011;10835;50.148;19.760;2023-05-10T02:32:50;4.35;;;2.40;;
21354;SDS011;10835;50.148;19.760;2023-05-10T02:35:19;2.70;;;1.90;;
21354;SDS011;10835;50.148;19.760;2023-05-10T02:37:48;3.40;;;2.10;;
21354;SDS011;10835;50.148;19.760;2023-05-10T02:40:17;4.43;;;1.98;;
21354;SDS011;10835;50.148;19.760;2023-05-10T02:42:49;6.25;;;2.10;;
21354;SDS011;10835;50.148;19.760;2023-05-10T02:45:20;3.63;;;1.60;;
21354;SDS011;10835;50.148;19.760;2023-05-10T02:47:53;3.10;;;2.10;;
21354;SDS011;10835;50.148;19.760;2023-05-10T02:50:22;3.08;;;2.13;;
21354;SDS011;10835;50.148;19.760;2023-05-10T02:52:54;4.47;;;1.98;;
21354;SDS011;10835;50.148;19.760;2023-05-10T02:55:31;6.00;;;2.15;;
21354;SDS011;10835;50.148;19.760;2023-05-10T02:58:02;2.80;;;2.20;;
21354;SDS011;10835;50.148;19.760;2023-05-10T03:00:31;4.13;;;2.08;;
21354;SDS011;10835;50.148;19.760;2023-05-10T03:03:00;6.07;;;2.30;;
21354;SDS011;10835;50.148;19.760;2023-05-10T03:05:29;5.65;;;3.17;;
21354;SDS011;10835;50.148;19.760;2023-05-10T03:08:00;5.93;;;2.60;;
21354;SDS011;10835;50.148;19.760;2023-05-10T03:10:33;4.53;;;2.70;;
21354;SDS011;10835;50.148;19.760;2023-05-10T03:13:13;3.05;;;2.20;;
21354;SDS011;10835;50.148;19.760;2023-05-10T03:15:58;2.70;;;1.80;;
21354;SDS011;10835;50.148;19.760;2023-05-10T03:18:37;2.85;;;2.40;;
21354;SDS011;10835;50.148;19.760;2023-05-10T03:21:10;3.22;;;2.22;;
21354;SDS011;10835;50.148;19.760;2023-05-10T03:23:43;2.15;;;1.80;;
21354;SDS011;10835;50.148;19.760;2023-05-10T03:26:15;7.80;;;2.53;;
21354;SDS011;10835;50.148;19.760;2023-05-10T03:28:48;2.85;;;1.90;;
21354;SDS011;10835;50.148;19.760;2023-05-10T03:31:18;3.08;;;2.28;;
21354;SDS011;10835;50.148;19.760;2023-05-10T03:33:48;4.05;;;2.20;;
21354;SDS011;10835;50.148;19.760;2023-05-10T03:36:22;2.97;;;2.10;;
21354;SDS011;10835;50.148;19.760;2023-05-10T03:38:51;9.98;;;2.10;;
21354;SDS011;10835;50.148;19.760;2023-05-10T03:41:19;3.45;;;2.00;;
21354;SDS011;10835;50.148;19.760;2023-05-10T03:43:48;3.97;;;2.28;;
21354;SDS011;10835;50.148;19.760;2023-05-10T03:46:16;3.08;;;2.00;;
21354;SDS011;10835;50.148;19.760;2023-05-10T03:48:45;2.60;;;2.00;;
21354;SDS011;10835;50.148;19.760;2023-05-10T03:51:14;6.82;;;3.33;;
21354;SDS011;10835;50.148;19.760;2023-05-10T03:53:43;6.53;;;3.75;;
21354;SDS011;10835;50.148;19.760;2023-05-10T03:56:11;5.95;;;3.00;;
21354;SDS011;10835;50.148;19.760;2023-05-10T03:58:39;7.05;;;3.05;;
21354;SDS011;10835;50.148;19.760;2023-05-10T04:01:07;6.10;;;3.25;;
21354;SDS011;10835;50.148;19.760;2023-05-10T04:03:36;3.83;;;2.08;;
21354;SDS011;10835;50.148;19.760;2023-05-10T04:06:04;6.05;;;3.45;;
21354;SDS011;10835;50.148;19.760;2023-05-10T04:08:36;3.85;;;2.70;;
21354;SDS011;10835;50.148;19.760;2023-05-10T04:11:05;5.85;;;3.40;;
21354;SDS011;10835;50.148;19.760;2023-05-10T04:13:34;4.30;;;2.85;;
21354;SDS011;10835;50.148;19.760;2023-05-10T04:16:02;3.85;;;2.55;;
21354;SDS011;10835;50.148;19.760;2023-05-10T04:18:31;5.82;;;1.90;;
21354;SDS011;10835;50.148;19.760;2023-05-10T04:20:59;5.07;;;2.50;;
21354;SDS011;10835;50.148;19.760;2023-05-10T04:23:27;2.95;;;2.00;;
21354;SDS011;10835;50.148;19.760;2023-05-10T04:26:00;2.95;;;2.50;;
21354;SDS011;10835;50.148;19.760;2023-05-10T04:28:29;3.55;;;2.47;;
21354;SDS011;10835;50.148;19.760;2023-05-10T04:31:01;5.07;;;2.63;;
21354;SDS011;10835;50.148;19.760;2023-05-10T04:33:30;2.75;;;2.05;;
21354;SDS011;10835;50.148;19.760;2023-05-10T04:35:59;7.22;;;2.35;;
21354;SDS011;10835;50.148;19.760;2023-05-10T04:38:28;3.53;;;2.13;;
21354;SDS011;10835;50.148;19.760;2023-05-10T04:41:04;3.05;;;2.10;;
21354;SDS011;10835;50.148;19.760;2023-05-10T04:43:33;3.10;;;1.98;;
21354;SDS011;10835;50.148;19.760;2023-05-10T04:46:02;3.95;;;2.00;;
21354;SDS011;10835;50.148;19.760;2023-05-10T04:48:31;5.10;;;2.35;;
21354;SDS011;10835;50.148;19.760;2023-05-10T04:51:04;3.05;;;2.10;;
21354;SDS011;10835;50.148;19.760;2023-05-10T04:53:32;5.70;;;2.15;;
21354;SDS011;10835;50.148;19.760;2023-05-10T04:56:01;4.50;;;2.08;;
21354;SDS011;10835;50.148;19.760;2023-05-10T04:58:30;4.63;;;2.55;;
21354;SDS011;10835;50.148;19.760;2023-05-10T05:01:04;6.57;;;2.50;;
21354;SDS011;10835;50.148;19.760;2023-05-10T05:03:32;3.30;;;2.40;;
21354;SDS011;10835;50.148;19.760;2023-05-10T05:06:01;5.68;;;2.55;;
21354;SDS011;10835;50.148;19.760;2023-05-10T05:08:30;3.70;;;2.40;;
21354;SDS011;10835;50.148;19.760;2023-05-10T05:10:58;5.13;;;2.47;;
21354;SDS011;10835;50.148;19.760;2023-05-10T05:13:26;3.75;;;2.25;;
21354;SDS011;10835;50.148;19.760;2023-05-10T05:15:56;5.10;;;2.53;;
21354;SDS011;10835;50.148;19.760;2023-05-10T05:18:24;6.28;;;2.67;;
21354;SDS011;10835;50.148;19.760;2023-05-10T05:20:52;8.75;;;2.70;;
21354;SDS011;10835;50.148;19.760;2023-05-10T05:23:21;3.70;;;2.40;;
21354;SDS011;10835;50.148;19.760;2023-05-10T05:25:52;8.68;;;2.83;;
21354;SDS011;10835;50.148;19.760;2023-05-10T05:28:20;3.70;;;2.53;;
21354;SDS011;10835;50.148;19.760;2023-05-10T05:30:48;4.95;;;2.63;;
21354;SDS011;10835;50.148;19.760;2023-05-10T05:33:18;4.32;;;2.50;;
21354;SDS011;10835;50.148;19.760;2023-05-10T05:35:47;6.53;;;2.60;;
21354;SDS011;10835;50.148;19.760;2023-05-10T05:38:21;3.58;;;2.58;;
21354;SDS011;10835;50.148;19.760;2023-05-10T05:40:51;3.50;;;2.40;;
21354;SDS011;10835;50.148;19.760;2023-05-10T05:43:19;4.13;;;2.63;;
21354;SDS011;10835;50.148;19.760;2023-05-10T05:45:47;4.10;;;2.70;;
21354;SDS011;10835;50.148;19.760;2023-05-10T05:48:15;4.80;;;2.58;;
21354;SDS011;10835;50.148;19.760;2023-05-10T05:50:45;4.10;;;2.45;;
21354;SDS011;10835;50.148;19.760;2023-05-10T05:53:13;7.47;;;2.65;;
21354;SDS011;10835;50.148;19.760;2023-05-10T05:55:50;3.65;;;2.65;;
21354;SDS011;10835;50.148;19.760;2023-05-10T05:58:19;4.82;;;2.90;;
21354;SDS011;10835;50.148;19.760;2023-05-10T06:00:51;5.68;;;2.38;;
21354;SDS011;10835;50.148;19.760;2023-05-10T06:03:21;5.32;;;2.60;;
21354;SDS011;10835;50.148;19.760;2023-05-10T06:05:52;3.78;;;2.65;;
21354;SDS011;10835;50.148;19.760;2023-05-10T06:08:20;6.05;;;2.75;;
21354;SDS011;10835;50.148;19.760;2023-05-10T06:10:52;5.45;;;2.80;;
21354;SDS011;10835;50.148;19.760;2023-05-10T06:13:20;4.90;;;2.80;;
21354;SDS011;10835;50.148;19.760;2023-05-10T06:15:48;5.90;;;2.90;;
21354;SDS011;10835;50.148;19.760;2023-05-10T06:18:17;5.10;;;2.08;;
21354;SDS011;10835;50.148;19.760;2023-05-10T06:20:47;3.63;;;2.65;;
21354;SDS011;10835;50.148;19.760;2023-05-10T06:23:16;3.67;;;2.95;;
21354;SDS011;10835;50.148;19.760;2023-05-10T06:25:44;5.72;;;2.65;;
21354;SDS011;10835;50.148;19.760;2023-05-10T06:28:13;5.75;;;2.70;;
21354;SDS011;10835;50.148;19.760;2023-05-10T06:30:41;4.78;;;2.80;;
21354;SDS011;10835;50.148;19.760;2023-05-10T06:33:10;4.60;;;2.20;;
21354;SDS011;10835;50.148;19.760;2023-05-10T06:35:38;3.67;;;2.60;;
21354;SDS011;10835;50.148;19.760;2023-05-10T06:38:07;4.22;;;2.63;;
21354;SDS011;10835;50.148;19.760;2023-05-10T06:40:36;7.10;;;2.70;;
21354;SDS011;10835;50.148;19.760;2023-05-10T06:43:04;3.35;;;2.30;;
21354;SDS011;10835;50.148;19.760;2023-05-10T06:45:32;4.03;;;2.67;;
21354;SDS011;10835;50.148;19.760;2023-05-10T06:48:00;2.80;;;2.17;;
21354;SDS011;10835;50.148;19.760;2023-05-10T06:50:29;3.42;;;2.65;;
21354;SDS011;10835;50.148;19.760;2023-05-10T06:52:57;5.05;;;2.40;;
21354;SDS011;10835;50.148;19.760;2023-05-10T06:55:27;3.10;;;2.42;;
21354;SDS011;10835;50.148;19.760;2023-05-10T06:57:55;3.03;;;2.40;;
21354;SDS011;10835;50.148;19.760;2023-05-10T07:00:23;4.30;;;2.70;;
21354;SDS011;10835;50.148;19.760;2023-05-10T07:02:52;5.28;;;2.92;;
21354;SDS011;10835;50.148;19.760;2023-05-10T07:05:24;7.95;;;3.63;;
21354;SDS011;10835;50.148;19.760;2023-05-10T07:07:54;4.03;;;2.58;;
21354;SDS011;10835;50.148;19.760;2023-05-10T07:10:22;2.85;;;2.38;;
21354;SDS011;10835;50.148;19.760;2023-05-10T07:12:52;3.15;;;2.30;;
21354;SDS011;10835;50.148;19.760;2023-05-10T07:15:20;3.95;;;2.30;;
21354;SDS011;10835;50.148;19.760;2023-05-10T07:17:49;4.43;;;2.97;;
21354;SDS011;10835;50.148;19.760;2023-05-10T07:20:18;3.95;;;2.60;;
21354;SDS011;10835;50.148;19.760;2023-05-10T07:22:46;6.95;;;2.88;;
21354;SDS011;10835;50.148;19.760;2023-05-10T07:25:15;4.20;;;2.75;;
21354;SDS011;10835;50.148;19.760;2023-05-10T07:27:43;4.00;;;2.70;;
21354;SDS011;10835;50.148;19.760;2023-05-10T07:30:14;5.43;;;3.00;;
21354;SDS011;10835;50.148;19.760;2023-05-10T07:32:42;4.03;;;2.97;;
21354;SDS011;10835;50.148;19.760;2023-05-10T07:35:10;5.40;;;2.80;;
21354;SDS011;10835;50.148;19.760;2023-05-10T07:37:39;5.60;;;2.67;;
21354;SDS011;10835;50.148;19.760;2023-05-10T07:40:10;7.32;;;3.83;;
21354;SDS011;10835;50.148;19.760;2023-05-10T07:42:38;5.32;;;2.60;;
21354;SDS011;10835;50.148;19.760;2023-05-10T07:45:07;5.03;;;2.75;;
21354;SDS011;10835;50.148;19.760;2023-05-10T07:47:37;3.22;;;2.40;;
21354;SDS011;10835;50.148;19.760;2023-05-10T07:50:06;8.38;;;2.53;;
21354;SDS011;10835;50.148;19.760;2023-05-10T07:52:35;4.43;;;2.40;;
21354;SDS011;10835;50.148;19.760;2023-05-10T07:55:03;7.32;;;2.97;;
21354;SDS011;10835;50.148;19.760;2023-05-10T07:57:33;4.43;;;3.00;;
21354;SDS011;10835;50.148;19.760;2023-05-10T08:00:02;4.70;;;3.80;;
21354;SDS011;10835;50.148;19.760;2023-05-10T08:02:40;4.88;;;2.30;;
21354;SDS011;10835;50.148;19.760;2023-05-10T08:05:08;5.32;;;2.88;;
21354;SDS011;10835;50.148;19.760;2023-05-10T08:07:37;7.03;;;3.80;;
21354;SDS011;10835;50.148;19.760;2023-05-10T08:10:05;5.07;;;2.92;;
21354;SDS011;10835;50.148;19.760;2023-05-10T08:12:35;4.07;;;2.75;;
21354;SDS011;10835;50.148;19.760;2023-05-10T08:15:03;3.60;;;2.60;;
21354;SDS011;10835;50.148;19.760;2023-05-10T08:17:33;6.65;;;2.70;;
21354;SDS011;10835;50.148;19.760;2023-05-10T08:20:02;3.55;;;2.63;;
21354;SDS011;10835;50.148;19.760;2023-05-10T08:22:31;5.28;;;2.42;;
21354;SDS011;10835;50.148;19.760;2023-05-10T08:24:59;3.63;;;2.78;;
21354;SDS011;10835;50.148;19.760;2023-05-10T08:27:28;3.85;;;2.20;;
21354;SDS011;10835;50.148;19.760;2023-05-10T08:29:56;3.83;;;2.50;;
21354;SDS011;10835;50.148;19.760;2023-05-10T08:32:24;7.40;;;2.53;;
21354;SDS011;10835;50.148;19.760;2023-05-10T08:34:52;4.82;;;2.30;;
21354;SDS011;10835;50.148;19.760;2023-05-10T08:37:22;2.92;;;2.42;;
21354;SDS011;10835;50.148;19.760;2023-05-10T08:39:50;4.20;;;2.22;;
21354;SDS011;10835;50.148;19.760;2023-05-10T08:42:20;4.55;;;2.20;;
21354;SDS011;10835;50.148;19.760;2023-05-10T08:44:53;3.83;;;2.08;;
21354;SDS011;10835;50.148;19.760;2023-05-10T08:47:22;4.13;;;2.15;;
21354;SDS011;10835;50.148;19.760;2023-05-10T08:49:51;2.53;;;1.88;;
21354;SDS011;10835;50.148;19.760;2023-05-10T08:52:19;3.88;;;1.83;;
21354;SDS011;10835;50.148;19.760;2023-05-10T08:54:53;2.15;;;1.85;;
21354;SDS011;10835;50.148;19.760;2023-05-10T08:57:21;3.40;;;2.13;;
21354;SDS011;10835;50.148;19.760;2023-05-10T08:59:53;4.95;;;2.00;;
21354;SDS011;10835;50.148;19.760;2023-05-10T09:02:21;3.28;;;2.05;;
21354;SDS011;10835;50.148;19.760;2023-05-10T09:04:51;5.07;;;1.88;;
21354;SDS011;10835;50.148;19.760;2023-05-10T09:07:19;2.60;;;1.80;;
21354;SDS011;10835;50.148;19.760;2023-05-10T09:09:54;4.53;;;1.75;;
21354;SDS011;10835;50.148;19.760;2023-05-10T09:12:24;2.35;;;1.67;;
21354;SDS011;10835;50.148;19.760;2023-05-10T09:14:53;4.05;;;1.98;;
21354;SDS011;10835;50.148;19.760;2023-05-10T09:17:22;1.90;;;1.65;;
21354;SDS011;10835;50.148;19.760;2023-05-10T09:19:56;4.20;;;2.30;;
21354;SDS011;10835;50.148;19.760;2023-05-10T09:22:25;2.78;;;1.80;;
21354;SDS011;10835;50.148;19.760;2023-05-10T09:25:05;7.80;;;2.95;;
21354;SDS011;10835;50.148;19.760;2023-05-10T09:27:34;4.55;;;2.83;;
21354;SDS011;10835;50.148;19.760;2023-05-10T09:30:03;4.38;;;2.30;;
21354;SDS011;10835;50.148;19.760;2023-05-10T09:32:36;5.80;;;2.58;;
21354;SDS011;10835;50.148;19.760;2023-05-10T09:35:08;4.82;;;2.17;;
21354;SDS011;10835;50.148;19.760;2023-05-10T09:37:39;6.85;;;3.38;;
21354;SDS011;10835;50.148;19.760;2023-05-10T09:40:15;3.03;;;2.10;;
21354;SDS011;10835;50.148;19.760;2023-05-10T09:42:50;3.55;;;2.20;;
21354;SDS011;10835;50.148;19.760;2023-05-10T09:45:20;2.33;;;1.83;;
21354;SDS011;10835;50.148;19.760;2023-05-10T09:47:52;3.72;;;2.35;;
21354;SDS011;10835;50.148;19.760;2023-05-10T09:50:20;2.63;;;1.70;;
21354;SDS011;10835;50.148;19.760;2023-05-10T09:52:50;2.38;;;1.80;;
21354;SDS011;10835;50.148;19.760;2023-05-10T09:55:21;7.00;;;1.90;;
21354;SDS011;10835;50.148;19.760;2023-05-10T09:57:58;2.67;;;1.70;;
21354;SDS011;10835;50.148;19.760;2023-05-10T10:00:27;1.63;;;1.38;;
21354;SDS011;10835;50.148;19.760;2023-05-10T10:02:56;2.90;;;1.67;;
21354;SDS011;10835;50.148;19.760;2023-05-10T10:05:29;2.67;;;1.92;;
21354;SDS011;10835;50.148;19.760;2023-05-10T10:07:57;2.28;;;1.52;;
21354;SDS011;10835;50.148;19.760;2023-05-10T10:10:27;1.65;;;1.50;;
21354;SDS011;10835;50.148;19.760;2023-05-10T10:12:56;4.82;;;2.30;;
21354;SDS011;10835;50.148;19.760;2023-05-10T10:15:24;3.33;;;2.13;;
21354;SDS011;10835;50.148;19.760;2023-05-10T10:17:53;1.80;;;1.58;;
21354;SDS011;10835;50.148;19.760;2023-05-10T10:20:22;4.32;;;1.70;;
21354;SDS011;10835;50.148;19.760;2023-05-10T10:22:52;2.20;;;1.50;;
21354;SDS011;10835;50.148;19.760;2023-05-10T10:25:20;2.40;;;1.73;;
21354;SDS011;10835;50.148;19.760;2023-05-10T10:28:04;3.42;;;1.73;;
21354;SDS011;10835;50.148;19.760;2023-05-10T10:30:45;3.75;;;2.00;;
21354;SDS011;10835;50.148;19.760;2023-05-10T10:33:27;4.45;;;2.00;;
21354;SDS011;10835;50.148;19.760;2023-05-10T10:36:07;2.75;;;1.77;;
21354;SDS011;10835;50.148;19.760;2023-05-10T10:38:36;4.95;;;2.17;;
21354;SDS011;10835;50.148;19.760;2023-05-10T10:41:09;4.57;;;1.75;;
21354;SDS011;10835;50.148;19.760;2023-05-10T10:47:01;4.38;;;1.90;;
21354;SDS011;10835;50.148;19.760;2023-05-10T10:49:38;2.05;;;1.42;;
21354;SDS011;10835;50.148;19.760;2023-05-10T10:52:21;1.77;;;1.60;;
21354;SDS011;10835;50.148;19.760;2023-05-10T10:54:53;2.60;;;1.67;;
21354;SDS011;10835;50.148;19.760;2023-05-10T10:57:27;3.70;;;1.98;;
21354;SDS011;10835;50.148;19.760;2023-05-10T11:02:49;2.00;;;1.20;;
21354;SDS011;10835;50.148;19.760;2023-05-10T11:05:24;2.45;;;1.60;;
21354;SDS011;10835;50.148;19.760;2023-05-10T11:08:11;2.38;;;1.48;;
21354;SDS011;10835;50.148;19.760;2023-05-10T11:10:52;1.92;;;1.65;;
21354;SDS011;10835;50.148;19.760;2023-05-10T11:13:40;2.80;;;1.70;;
21354;SDS011;10835;50.148;19.760;2023-05-10T11:16:12;4.55;;;1.70;;
21354;SDS011;10835;50.148;19.760;2023-05-10T11:18:51;1.67;;;1.50;;
21354;SDS011;10835;50.148;19.760;2023-05-10T11:21:24;2.80;;;1.30;;
21354;SDS011;10835;50.148;19.760;2023-05-10T11:23:53;3.40;;;1.48;;
21354;SDS011;10835;50.148;19.760;2023-05-10T11:26:23;4.90;;;1.85;;
21354;SDS011;10835;50.148;19.760;2023-05-10T11:28:53;2.85;;;1.55;;
21354;SDS011;10835;50.148;19.760;2023-05-10T11:31:24;2.55;;;1.25;;
21354;SDS011;10835;50.148;19.760;2023-05-10T11:33:53;3.65;;;1.67;;
21354;SDS011;10835;50.148;19.760;2023-05-10T11:36:24;7.10;;;1.50;;
21354;SDS011;10835;50.148;19.760;2023-05-10T11:38:53;1.48;;;1.20;;
21354;SDS011;10835;50.148;19.760;2023-05-10T11:41:22;2.42;;;1.15;;
21354;SDS011;10835;50.148;19.760;2023-05-10T11:43:52;1.27;;;1.13;;
21354;SDS011;10835;50.148;19.760;2023-05-10T11:46:21;1.52;;;1.15;;
21354;SDS011;10835;50.148;19.760;2023-05-10T11:48:53;3.97;;;1.40;;
21354;SDS011;10835;50.148;19.760;2023-05-10T11:51:23;1.92;;;1.20;;
21354;SDS011;10835;50.148;19.760;2023-05-10T11:53:53;2.53;;;1.13;;
21354;SDS011;10835;50.148;19.760;2023-05-10T11:56:24;2.13;;;1.33;;
21354;SDS011;10835;50.148;19.760;2023-05-10T11:58:53;1.70;;;1.40;;
21354;SDS011;10835;50.148;19.760;2023-05-10T12:01:23;1.88;;;1.60;;
21354;SDS011;10835;50.148;19.760;2023-05-10T12:03:55;2.10;;;1.60;;
21354;SDS011;10835;50.148;19.760;2023-05-10T12:06:27;1.77;;;1.63;;
21354;SDS011;10835;50.148;19.760;2023-05-10T12:08:57;1.65;;;1.25;;
21354;SDS011;10835;50.148;19.760;2023-05-10T12:11:27;2.97;;;1.60;;
21354;SDS011;10835;50.148;19.760;2023-05-10T12:13:56;4.00;;;1.83;;
21354;SDS011;10835;50.148;19.760;2023-05-10T12:16:26;1.88;;;1.30;;
21354;SDS011;10835;50.148;19.760;2023-05-10T12:18:57;1.45;;;1.35;;
21354;SDS011;10835;50.148;19.760;2023-05-10T12:21:27;2.00;;;1.60;;
21354;SDS011;10835;50.148;19.760;2023-05-10T12:23:59;2.50;;;1.60;;
21354;SDS011;10835;50.148;19.760;2023-05-10T12:26:28;3.10;;;1.80;;
21354;SDS011;10835;50.148;19.760;2023-05-10T12:29:11;7.75;;;1.55;;
21354;SDS011;10835;50.148;19.760;2023-05-10T12:31:55;2.97;;;1.50;;
21354;SDS011;10835;50.148;19.760;2023-05-10T12:34:26;2.42;;;1.40;;
21354;SDS011;10835;50.148;19.760;2023-05-10T12:36:57;2.60;;;1.58;;
21354;SDS011;10835;50.148;19.760;2023-05-10T12:39:26;3.72;;;1.50;;
21354;SDS011;10835;50.148;19.760;2023-05-10T12:42:04;4.45;;;1.70;;
21354;SDS011;10835;50.148;19.760;2023-05-10T12:44:32;2.50;;;1.42;;
21354;SDS011;10835;50.148;19.760;2023-05-10T12:47:02;2.33;;;1.60;;
21354;SDS011;10835;50.148;19.760;2023-05-10T12:49:30;3.00;;;1.55;;
21354;SDS011;10835;50.148;19.760;2023-05-10T12:51:59;3.05;;;1.50;;
21354;SDS011;10835;50.148;19.760;2023-05-10T12:54:27;2.45;;;1.58;;
21354;SDS011;10835;50.148;19.760;2023-05-10T12:56:56;2.67;;;1.50;;
21354;SDS011;10835;50.148;19.760;2023-05-10T12:59:24;1.67;;;1.33;;
21354;SDS011;10835;50.148;19.760;2023-05-10T13:01:52;3.55;;;1.45;;
21354;SDS011;10835;50.148;19.760;2023-05-10T13:04:22;2.28;;;1.38;;
21354;SDS011;10835;50.148;19.760;2023-05-10T13:06:50;3.40;;;1.55;;
21354;SDS011;10835;50.148;19.760;2023-05-10T13:09:18;4.90;;;1.55;;
21354;SDS011;10835;50.148;19.760;2023-05-10T13:11:47;7.53;;;1.65;;
21354;SDS011;10835;50.148;19.760;2023-05-10T13:14:16;1.40;;;1.00;;
21354;SDS011;10835;50.148;19.760;2023-05-10T13:16:46;2.88;;;1.25;;
21354;SDS011;10835;50.148;19.760;2023-05-10T13:19:15;3.40;;;1.48;;
21354;SDS011;10835;50.148;19.760;2023-05-10T13:21:45;1.95;;;1.30;;
21354;SDS011;10835;50.148;19.760;2023-05-10T13:24:13;1.40;;;1.17;;
21354;SDS011;10835;50.148;19.760;2023-05-10T13:26:42;3.72;;;1.70;;
21354;SDS011;10835;50.148;19.760;2023-05-10T13:29:10;3.63;;;2.05;;
21354;SDS011;10835;50.148;19.760;2023-05-10T13:31:39;2.40;;;1.73;;
21354;SDS011;10835;50.148;19.760;2023-05-10T13:34:07;2.25;;;1.58;;
21354;SDS011;10835;50.148;19.760;2023-05-10T13:36:35;1.60;;;1.40;;
21354;SDS011;10835;50.148;19.760;2023-05-10T13:39:05;1.45;;;1.35;;
21354;SDS011;10835;50.148;19.760;2023-05-10T13:41:34;2.20;;;1.42;;
21354;SDS011;10835;50.148;19.760;2023-05-10T13:44:03;1.65;;;1.45;;
21354;SDS011;10835;50.148;19.760;2023-05-10T13:46:31;1.80;;;1.52;;
21354;SDS011;10835;50.148;19.760;2023-05-10T13:48:59;2.58;;;1.45;;
21354;SDS011;10835;50.148;19.760;2023-05-10T13:51:29;1.65;;;1.20;;
21354;SDS011;10835;50.148;19.760;2023-05-10T13:53:58;1.85;;;1.50;;
21354;SDS011;10835;50.148;19.760;2023-05-10T13:56:27;2.20;;;1.58;;
21354;SDS011;10835;50.148;19.760;2023-05-10T13:58:56;2.17;;;1.40;;
21354;SDS011;10835;50.148;19.760;2023-05-10T14:01:24;2.15;;;1.58;;
21354;SDS011;10835;50.148;19.760;2023-05-10T14:03:53;2.53;;;1.40;;
21354;SDS011;10835;50.148;19.760;2023-05-10T14:06:21;3.70;;;1.60;;
21354;SDS011;10835;50.148;19.760;2023-05-10T14:08:50;1.48;;;1.38;;
21354;SDS011;10835;50.148;19.760;2023-05-10T14:11:18;1.85;;;1.60;;
21354;SDS011;10835;50.148;19.760;2023-05-10T14:13:51;5.40;;;1.70;;
21354;SDS011;10835;50.148;19.760;2023-05-10T14:16:19;3.92;;;1.73;;
21354;SDS011;10835;50.148;19.760;2023-05-10T14:18:49;1.90;;;1.27;;
21354;SDS011;10835;50.148;19.760;2023-05-10T14:21:17;4.32;;;1.73;;
21354;SDS011;10835;50.148;19.760;2023-05-10T14:23:46;2.78;;;2.05;;
21354;SDS011;10835;50.148;19.760;2023-05-10T14:26:14;3.53;;;1.73;;
21354;SDS011;10835;50.148;19.760;2023-05-10T14:28:42;3.08;;;1.85;;
21354;SDS011;10835;50.148;19.760;2023-05-10T14:31:12;3.28;;;1.23;;
21354;SDS011;10835;50.148;19.760;2023-05-10T14:33:43;3.63;;;2.80;;
21354;SDS011;10835;50.148;19.760;2023-05-10T14:36:11;3.05;;;1.60;;
21354;SDS011;10835;50.148;19.760;2023-05-10T14:38:40;3.83;;;1.73;;
21354;SDS011;10835;50.148;19.760;2023-05-10T14:41:08;1.40;;;1.23;;
21354;SDS011;10835;50.148;19.760;2023-05-10T14:43:40;1.85;;;1.70;;
21354;SDS011;10835;50.148;19.760;2023-05-10T14:46:08;1.58;;;1.25;;
21354;SDS011;10835;50.148;19.760;2023-05-10T14:48:38;2.85;;;1.60;;
21354;SDS011;10835;50.148;19.760;2023-05-10T14:51:06;3.28;;;1.58;;
21354;SDS011;10835;50.148;19.760;2023-05-10T14:53:35;1.95;;;1.42;;
21354;SDS011;10835;50.148;19.760;2023-05-10T14:56:03;5.20;;;1.63;;
21354;SDS011;10835;50.148;19.760;2023-05-10T14:58:31;2.22;;;1.85;;
21354;SDS011;10835;50.148;19.760;2023-05-10T15:01:00;2.00;;;1.70;;